createdAt,value
2019-05-21T00:27:44.469Z,0.00
2019-05-21T00:28:44.435Z,0.00
2019-05-21T00:29:44.502Z,0.00
2019-05-21T00:30:44.571Z,0.00
2019-05-21T00:31:44.512Z,0.00
2019-05-21T00:32:44.474Z,0.00
2019-05-21T00:33:44.501Z,0.00
2019-05-21T00:34:44.634Z,0.00
2019-05-21T00:35:44.533Z,0.00
2019-05-21T00:36:44.557Z,0.00
2019-05-21T00:37:44.557Z,0.00
2019-05-21T00:38:44.510Z,0.00
2019-05-21T00:39:44.631Z,0.00
2019-05-21T00:40:44.618Z,0.00
2019-05-21T00:41:44.595Z,0.00
2019-05-21T00:42:44.654Z,0.00
2019-05-21T00:43:44.548Z,0.00
2019-05-21T00:44:44.620Z,0.00
2019-05-21T00:45:44.612Z,0.00
2019-05-21T00:46:44.611Z,0.00
2019-05-21T00:47:44.617Z,0.00
2019-05-21T00:48:44.621Z,0.00
2019-05-21T00:49:44.627Z,0.00
2019-05-21T00:50:44.620Z,0.00
2019-05-21T00:51:44.637Z,0.00
2019-05-21T00:52:44.668Z,0.00
2019-05-21T00:53:44.656Z,0.00
2019-05-21T00:54:44.655Z,0.00
2019-05-21T00:55:44.675Z,0.00
2019-05-21T00:56:44.729Z,0.00
2019-05-21T00:57:44.702Z,0.00
2019-05-21T00:58:44.703Z,0.00
2019-05-21T00:59:44.745Z,0.00
2019-05-21T01:00:44.694Z,0.00
2019-05-21T01:01:44.721Z,0.00
2019-05-21T01:02:44.718Z,0.00
2019-05-21T01:03:44.722Z,0.00
2019-05-21T01:04:59.625Z,0.00
2019-05-21T01:05:44.745Z,0.00
2019-05-21T01:06:44.805Z,0.00
2019-05-21T01:07:44.767Z,0.00
2019-05-21T01:08:44.766Z,0.00
2019-05-21T01:09:44.782Z,0.00
2019-05-21T01:10:44.789Z,0.00
2019-05-21T01:11:44.829Z,0.00
2019-05-21T01:12:44.833Z,0.00
2019-05-21T01:13:44.801Z,0.00
2019-05-21T01:14:44.822Z,0.00
2019-05-21T01:15:44.818Z,0.00
2019-05-21T01:16:44.838Z,0.00
2019-05-21T01:17:44.905Z,0.00
2019-05-21T01:18:44.855Z,0.00
2019-05-21T01:19:44.854Z,0.00
2019-05-21T01:20:44.862Z,0.00
2019-05-21T01:21:44.903Z,0.00
2019-05-21T01:22:44.883Z,0.00
2019-05-21T01:23:44.952Z,0.00
2019-05-21T01:24:44.966Z,0.00
2019-05-21T01:25:44.923Z,0.00
2019-05-21T01:26:44.913Z,0.00
2019-05-21T01:27:45.034Z,0.00
2019-05-21T01:28:44.963Z,0.00
2019-05-21T01:29:44.948Z,0.00
2019-05-21T01:30:45.002Z,0.00
2019-05-21T01:31:44.965Z,0.00
2019-05-21T01:32:44.993Z,0.00
2019-05-21T01:33:45.003Z,0.00
2019-05-21T01:34:44.988Z,0.00
2019-05-21T01:35:45.011Z,0.00
2019-05-21T01:36:45.015Z,0.00
2019-05-21T01:37:45.025Z,0.00
2019-05-21T01:38:45.054Z,0.00
2019-05-21T01:39:45.068Z,0.00
2019-05-21T01:40:45.048Z,0.00
2019-05-21T01:41:45.051Z,0.00
2019-05-21T01:42:45.064Z,0.00
2019-05-21T01:43:45.076Z,0.00
2019-05-21T01:44:45.083Z,0.00
2019-05-21T01:45:45.080Z,0.00
2019-05-21T01:46:45.088Z,0.00
2019-05-21T01:47:45.091Z,0.00
2019-05-21T01:48:45.123Z,0.00
2019-05-21T01:49:45.111Z,0.00
2019-05-21T01:50:45.154Z,0.00
2019-05-21T01:51:45.126Z,0.00
2019-05-21T01:52:45.153Z,0.00
2019-05-21T01:53:45.140Z,0.00
2019-05-21T01:54:45.146Z,0.00
2019-05-21T01:55:45.271Z,0.00
2019-05-21T01:56:45.176Z,0.00
2019-05-21T01:57:45.182Z,0.00
2019-05-21T01:58:45.210Z,0.00
2019-05-21T01:59:45.203Z,0.00
2019-05-21T02:00:45.229Z,0.00
2019-05-21T02:01:45.198Z,0.00
2019-05-21T02:02:45.226Z,0.00
2019-05-21T02:03:45.237Z,0.00
2019-05-21T02:04:45.281Z,0.00
2019-05-21T02:05:45.291Z,0.00
2019-05-21T02:06:45.292Z,0.00
2019-05-21T02:07:45.302Z,0.00
2019-05-21T02:08:45.306Z,0.00
2019-05-21T02:09:45.313Z,0.00
2019-05-21T02:10:45.304Z,0.00
2019-05-21T02:11:45.313Z,0.00
2019-05-21T02:12:45.335Z,0.00
2019-05-21T02:13:45.318Z,0.00
2019-05-21T02:14:45.323Z,0.00
2019-05-21T02:15:45.374Z,0.00
2019-05-21T02:16:45.339Z,0.00
2019-05-21T02:17:45.352Z,0.00
2019-05-21T02:18:45.355Z,0.00
2019-05-21T02:19:45.582Z,0.00
2019-05-21T02:20:45.435Z,0.00
2019-05-21T02:21:45.379Z,0.00
2019-05-21T02:22:45.396Z,0.00
2019-05-21T02:23:45.395Z,0.00
2019-05-21T02:24:45.406Z,0.00
2019-05-21T02:25:45.400Z,0.00
2019-05-21T02:26:45.455Z,0.00
2019-05-21T02:27:45.430Z,0.00
2019-05-21T02:28:45.439Z,0.00
2019-05-21T02:29:45.493Z,0.00
2019-05-21T02:30:45.506Z,0.00
2019-05-21T02:31:45.462Z,0.00
2019-05-21T02:32:45.471Z,0.00
2019-05-21T02:33:45.466Z,0.00
2019-05-21T02:34:45.479Z,0.00
2019-05-21T02:35:54.259Z,0.00
2019-05-21T02:36:45.517Z,0.00
2019-05-21T02:37:45.517Z,0.00
2019-05-21T02:38:45.521Z,0.00
2019-05-21T02:39:45.517Z,0.00
2019-05-21T02:40:45.579Z,0.00
2019-05-21T02:41:45.613Z,0.00
2019-05-21T02:42:45.600Z,0.00
2019-05-21T02:43:45.554Z,0.00
2019-05-21T02:44:45.608Z,0.00
2019-05-21T02:45:45.592Z,0.00
2019-05-21T02:46:45.646Z,0.00
2019-05-21T02:47:45.603Z,0.00
2019-05-21T02:48:45.610Z,0.00
2019-05-21T02:49:45.640Z,5.63
2019-05-21T02:50:45.630Z,5.63
2019-05-21T02:51:45.655Z,5.63
2019-05-21T02:52:45.674Z,5.63
2019-05-21T02:53:45.667Z,5.63
2019-05-21T02:54:45.702Z,5.63
2019-05-21T02:55:45.678Z,5.63
2019-05-21T02:56:45.670Z,5.63
2019-05-21T02:57:45.727Z,11.25
2019-05-21T02:58:45.741Z,11.25
2019-05-21T02:59:45.700Z,11.25
2019-05-21T03:00:45.705Z,11.25
2019-05-21T03:01:45.721Z,11.25
2019-05-21T03:02:45.730Z,11.25
2019-05-21T03:03:45.757Z,16.88
2019-05-21T03:04:45.738Z,16.88
2019-05-21T03:05:45.748Z,16.88
2019-05-21T03:06:45.758Z,16.88
2019-05-21T03:07:45.763Z,22.50
2019-05-21T03:08:45.807Z,22.50
2019-05-21T03:09:45.764Z,22.50
2019-05-21T03:10:45.772Z,28.13
2019-05-21T03:11:45.786Z,28.13
2019-05-21T03:12:45.800Z,33.75
2019-05-21T03:13:45.826Z,33.75
2019-05-21T03:14:45.825Z,33.75
2019-05-21T03:15:45.820Z,39.38
2019-05-21T03:16:45.831Z,39.38
2019-05-21T03:17:45.870Z,39.38
2019-05-21T03:18:45.859Z,45.00
2019-05-21T03:19:45.850Z,45.00
2019-05-21T03:20:45.866Z,50.63
2019-05-21T03:21:45.884Z,50.63
2019-05-21T03:22:45.909Z,56.25
2019-05-21T03:23:45.904Z,56.25
2019-05-21T03:24:45.882Z,61.88
2019-05-21T03:25:45.887Z,67.50
2019-05-21T03:26:45.975Z,73.13
2019-05-21T03:27:45.949Z,78.75
2019-05-21T03:28:45.921Z,84.38
2019-05-21T03:29:45.927Z,84.38
2019-05-21T03:30:45.967Z,90.00
2019-05-21T03:31:45.956Z,95.63
2019-05-21T03:32:45.961Z,101.25
2019-05-21T03:33:45.978Z,101.25
2019-05-21T03:34:46.065Z,106.88
2019-05-21T03:35:45.994Z,112.50
2019-05-21T03:36:46.012Z,112.50
2019-05-21T03:37:46.167Z,118.13
2019-05-21T03:38:46.061Z,123.75
2019-05-21T03:39:46.090Z,129.38
2019-05-21T03:40:46.034Z,129.38
2019-05-21T03:41:46.121Z,135.00
2019-05-21T03:42:46.051Z,140.63
2019-05-21T03:43:46.077Z,146.25
2019-05-21T03:44:59.255Z,151.88
2019-05-21T03:45:46.119Z,157.50
2019-05-21T03:46:46.099Z,163.13
2019-05-21T03:47:46.114Z,168.75
2019-05-21T03:48:46.088Z,174.38
2019-05-21T03:49:46.172Z,180.00
2019-05-21T03:50:46.126Z,185.63
2019-05-21T03:51:46.114Z,191.25
2019-05-21T03:52:47.423Z,196.88
2019-05-21T03:53:46.169Z,196.88
2019-05-21T03:54:46.181Z,208.13
2019-05-21T03:55:46.207Z,213.75
2019-05-21T03:56:46.177Z,225.00
2019-05-21T03:57:46.158Z,236.25
2019-05-21T03:58:46.173Z,241.88
2019-05-21T03:59:46.199Z,258.75
2019-05-21T04:00:46.219Z,264.38
2019-05-21T04:01:46.194Z,281.25
2019-05-21T04:02:46.216Z,292.50
2019-05-21T04:03:46.241Z,309.38
2019-05-21T04:04:46.235Z,326.25
2019-05-21T04:05:46.262Z,326.25
2019-05-21T04:06:52.122Z,343.13
2019-05-21T04:07:46.275Z,354.38
2019-05-21T04:08:46.285Z,376.88
2019-05-21T04:09:46.272Z,388.13
2019-05-21T04:10:46.315Z,405.00
2019-05-21T04:11:46.399Z,427.50
2019-05-21T04:12:46.291Z,455.63
2019-05-21T04:13:46.565Z,472.50
2019-05-21T04:14:46.315Z,495.00
2019-05-21T04:15:46.351Z,517.50
2019-05-21T04:16:46.357Z,540.00
2019-05-21T04:17:46.341Z,562.50
2019-05-21T04:18:46.368Z,579.38
2019-05-21T04:19:46.368Z,590.63
2019-05-21T04:20:46.367Z,601.88
2019-05-21T04:21:46.551Z,618.75
2019-05-21T04:22:46.389Z,641.25
2019-05-21T04:23:46.395Z,658.13
2019-05-21T04:24:46.415Z,680.63
2019-05-21T04:25:46.424Z,708.75
2019-05-21T04:26:46.460Z,731.25
2019-05-21T04:27:46.428Z,753.75
2019-05-21T04:28:46.497Z,776.25
2019-05-21T04:29:46.451Z,793.13
2019-05-21T04:30:46.500Z,821.25
2019-05-21T04:31:46.495Z,843.75
2019-05-21T04:32:46.534Z,860.63
2019-05-21T04:33:46.510Z,877.50
2019-05-21T04:34:46.514Z,894.38
2019-05-21T04:35:46.527Z,911.25
2019-05-21T04:36:46.540Z,911.25
2019-05-21T04:37:46.588Z,916.88
2019-05-21T04:38:46.561Z,911.25
2019-05-21T04:39:46.578Z,911.25
2019-05-21T04:40:46.656Z,922.50
2019-05-21T04:41:46.596Z,933.75
2019-05-21T04:42:46.643Z,945.00
2019-05-21T04:43:46.648Z,961.88
2019-05-21T04:44:46.603Z,978.75
2019-05-21T04:45:46.679Z,1001.25
2019-05-21T04:46:46.652Z,1018.13
2019-05-21T04:47:46.664Z,1029.38
2019-05-21T04:48:46.702Z,1029.38
2019-05-21T04:49:46.675Z,1035.00
2019-05-21T04:50:46.696Z,1046.25
2019-05-21T04:51:46.684Z,1057.50
2019-05-21T04:52:46.726Z,1063.13
2019-05-21T04:53:46.754Z,1074.38
2019-05-21T04:54:46.725Z,1091.25
2019-05-21T04:55:46.736Z,1108.13
2019-05-21T04:56:46.755Z,1125.00
2019-05-21T04:57:46.803Z,1141.88
2019-05-21T04:58:46.800Z,1153.13
2019-05-21T04:59:46.824Z,1158.75
2019-05-21T05:00:46.801Z,1170.00
2019-05-21T05:01:46.812Z,1175.63
2019-05-21T05:02:46.818Z,1192.50
2019-05-21T05:03:46.847Z,1215.00
2019-05-21T05:04:46.890Z,1215.00
2019-05-21T05:05:46.879Z,1231.88
2019-05-21T05:06:46.886Z,1237.50
2019-05-21T05:07:46.900Z,1243.13
2019-05-21T05:08:46.926Z,1260.00
2019-05-21T05:09:46.936Z,1265.63
2019-05-21T05:10:49.303Z,1276.88
2019-05-21T05:11:46.949Z,1293.75
2019-05-21T05:12:47.005Z,1299.38
2019-05-21T05:13:46.964Z,1305.00
2019-05-21T05:14:47.017Z,1321.88
2019-05-21T05:15:47.030Z,1333.13
2019-05-21T05:16:47.041Z,1338.75
2019-05-21T05:17:47.053Z,1338.75
2019-05-21T05:18:47.051Z,1361.25
2019-05-21T05:19:47.067Z,1366.88
2019-05-21T05:20:47.093Z,1372.50
2019-05-21T05:21:47.226Z,1378.13
2019-05-21T05:22:47.129Z,1389.38
2019-05-21T05:23:47.173Z,1389.38
2019-05-21T05:24:47.154Z,1400.63
2019-05-21T05:25:47.309Z,1406.25
2019-05-21T05:26:47.196Z,1411.88
2019-05-21T05:27:47.207Z,1428.75
2019-05-21T05:28:47.267Z,1423.13
2019-05-21T05:29:47.823Z,1434.38
2019-05-21T05:30:48.121Z,1434.38
2019-05-21T05:31:48.495Z,1440.00
2019-05-21T05:32:47.522Z,1445.63
2019-05-21T05:33:47.935Z,1456.88
2019-05-21T05:34:47.377Z,1468.13
2019-05-21T05:35:47.416Z,1473.75
2019-05-21T05:36:47.833Z,1468.13
2019-05-21T05:37:49.020Z,1473.75
2019-05-21T05:38:47.360Z,1479.38
2019-05-21T05:39:47.501Z,1485.00
2019-05-21T05:40:47.475Z,1501.88
2019-05-21T05:41:47.567Z,1496.25
2019-05-21T05:42:47.573Z,1496.25
2019-05-21T05:43:47.725Z,1490.63
2019-05-21T05:44:47.536Z,1501.88
2019-05-21T05:45:47.757Z,1507.50
2019-05-21T05:46:47.525Z,1507.50
2019-05-21T05:47:47.618Z,1501.88
2019-05-21T05:48:47.884Z,1513.13
2019-05-21T05:49:47.834Z,1513.13
2019-05-21T05:50:47.627Z,1518.75
2019-05-21T05:51:47.755Z,1535.63
2019-05-21T05:52:48.248Z,1524.38
2019-05-21T05:53:47.616Z,1530.00
2019-05-21T05:54:47.643Z,1530.00
2019-05-21T05:55:47.698Z,1524.38
2019-05-21T05:56:47.672Z,1541.25
2019-05-21T05:57:47.829Z,1535.63
2019-05-21T05:58:47.691Z,1524.38
2019-05-21T05:59:47.739Z,1530.00
2019-05-21T06:00:47.744Z,1524.38
2019-05-21T06:01:47.770Z,1518.75
2019-05-21T06:02:47.761Z,1518.75
2019-05-21T06:03:47.807Z,1513.13
2019-05-21T06:04:47.837Z,1507.50
2019-05-21T06:05:47.820Z,1496.25
2019-05-21T06:06:47.846Z,1490.63
2019-05-21T06:07:59.412Z,1490.63
2019-05-21T06:08:47.877Z,1490.63
2019-05-21T06:09:47.911Z,1496.25
2019-05-21T06:10:47.913Z,1501.88
2019-05-21T06:11:47.962Z,1490.63
2019-05-21T06:12:47.967Z,1496.25
2019-05-21T06:13:47.977Z,1485.00
2019-05-21T06:14:48.013Z,1485.00
2019-05-21T06:15:48.020Z,1479.38
2019-05-21T06:16:48.037Z,1479.38
2019-05-21T06:17:48.053Z,1485.00
2019-05-21T06:18:48.068Z,1479.38
2019-05-21T06:19:48.086Z,1462.50
2019-05-21T06:20:48.129Z,1473.75
2019-05-21T06:21:48.130Z,1479.38
2019-05-21T06:22:48.151Z,1456.88
2019-05-21T06:23:48.148Z,1445.63
2019-05-21T06:24:48.162Z,1434.38
2019-05-21T06:25:48.218Z,1428.75
2019-05-21T06:26:48.219Z,1417.50
2019-05-21T06:27:48.238Z,1400.63
2019-05-21T06:28:49.172Z,1389.38
2019-05-21T06:29:48.262Z,1378.13
2019-05-21T06:30:48.285Z,1366.88
2019-05-21T06:31:48.451Z,1355.63
2019-05-21T06:32:48.324Z,1344.38
2019-05-21T06:33:48.325Z,1333.13
2019-05-21T06:34:48.879Z,1327.50
2019-05-21T06:35:48.415Z,1310.63
2019-05-21T06:36:48.449Z,1293.75
2019-05-21T06:37:48.416Z,1276.88
2019-05-21T06:38:48.418Z,1254.38
2019-05-21T06:39:48.464Z,1248.75
2019-05-21T06:40:48.784Z,1231.88
2019-05-21T06:41:48.566Z,1215.00
2019-05-21T06:42:48.509Z,1192.50
2019-05-21T06:43:48.733Z,1158.75
2019-05-21T06:44:48.533Z,1136.25
2019-05-21T06:45:48.543Z,1046.25
2019-05-21T06:46:48.599Z,967.50
2019-05-21T06:47:48.703Z,1006.88
2019-05-21T06:48:48.615Z,956.25
2019-05-21T06:49:48.622Z,916.88
2019-05-21T06:50:48.650Z,821.25
2019-05-21T06:51:48.685Z,691.88
2019-05-21T06:52:48.813Z,540.00
2019-05-21T06:53:48.748Z,410.63
2019-05-21T06:54:48.877Z,337.50
2019-05-21T06:55:48.737Z,315.00
2019-05-21T06:56:48.755Z,309.38
2019-05-21T06:57:48.785Z,298.13
2019-05-21T06:58:48.855Z,292.50
2019-05-21T06:59:48.826Z,286.88
2019-05-21T07:00:48.882Z,281.25
2019-05-21T07:01:48.863Z,281.25
2019-05-21T07:02:48.921Z,281.25
2019-05-21T07:03:48.922Z,281.25
2019-05-21T07:04:48.962Z,281.25
2019-05-21T07:05:58.298Z,275.63
2019-05-21T07:06:49.106Z,275.63
2019-05-21T07:07:48.951Z,275.63
2019-05-21T07:08:48.997Z,281.25
2019-05-21T07:09:49.103Z,281.25
2019-05-21T07:10:49.005Z,281.25
2019-05-21T07:11:49.086Z,281.25
2019-05-21T07:12:49.054Z,281.25
2019-05-21T07:13:49.113Z,281.25
2019-05-21T07:14:49.186Z,281.25
2019-05-21T07:15:49.095Z,281.25
2019-05-21T07:16:49.686Z,281.25
2019-05-21T07:17:49.130Z,281.25
2019-05-21T07:18:49.230Z,281.25
2019-05-21T07:19:49.237Z,275.63
2019-05-21T07:20:49.186Z,275.63
2019-05-21T07:21:49.215Z,275.63
2019-05-21T07:22:49.263Z,275.63
2019-05-21T07:23:49.204Z,275.63
2019-05-21T07:24:49.270Z,275.63
2019-05-21T07:25:49.249Z,275.63
2019-05-21T07:26:49.281Z,275.63
2019-05-21T07:27:49.298Z,275.63
2019-05-21T07:28:49.335Z,270.00
2019-05-21T07:29:50.071Z,270.00
2019-05-21T07:30:49.316Z,270.00
2019-05-21T07:31:49.352Z,270.00
2019-05-21T07:32:49.483Z,264.38
2019-05-21T07:33:49.366Z,264.38
2019-05-21T07:34:49.397Z,264.38
2019-05-21T07:35:49.434Z,264.38
2019-05-21T07:36:49.408Z,264.38
2019-05-21T07:37:49.461Z,264.38
2019-05-21T07:38:53.845Z,264.38
2019-05-21T07:39:49.442Z,264.38
2019-05-21T07:40:49.463Z,264.38
2019-05-21T07:41:49.480Z,264.38
2019-05-21T07:42:49.476Z,264.38
2019-05-21T07:43:49.552Z,258.75
2019-05-21T07:44:49.495Z,258.75
2019-05-21T07:45:49.518Z,258.75
2019-05-21T07:46:49.527Z,258.75
2019-05-21T07:47:49.531Z,258.75
2019-05-21T07:48:49.586Z,264.38
2019-05-21T07:49:49.595Z,264.38
2019-05-21T07:50:49.602Z,264.38
2019-05-21T07:51:49.601Z,264.38
2019-05-21T07:52:49.604Z,264.38
2019-05-21T07:53:49.620Z,264.38
2019-05-21T07:54:49.667Z,264.38
2019-05-21T07:55:49.661Z,258.75
2019-05-21T07:56:49.657Z,258.75
2019-05-21T07:57:49.761Z,258.75
2019-05-21T07:58:49.681Z,253.13
2019-05-21T07:59:49.701Z,253.13
2019-05-21T08:00:49.715Z,253.13
2019-05-21T08:01:49.732Z,247.50
2019-05-21T08:02:49.740Z,247.50
2019-05-21T08:03:49.752Z,247.50
2019-05-21T08:04:49.742Z,247.50
2019-05-21T08:05:49.802Z,247.50
2019-05-21T08:06:49.782Z,247.50
2019-05-21T08:07:49.801Z,247.50
2019-05-21T08:08:49.811Z,247.50
2019-05-21T08:09:49.807Z,247.50
2019-05-21T08:10:49.858Z,253.13
2019-05-21T08:11:49.850Z,253.13
2019-05-21T08:12:49.856Z,253.13
2019-05-21T08:13:49.858Z,253.13
2019-05-21T08:14:49.864Z,258.75
2019-05-21T08:15:49.911Z,258.75
2019-05-21T08:16:49.932Z,258.75
2019-05-21T08:17:49.951Z,258.75
2019-05-21T08:18:49.915Z,253.13
2019-05-21T08:19:49.944Z,253.13
2019-05-21T08:20:49.936Z,253.13
2019-05-21T08:21:49.978Z,247.50
2019-05-21T08:22:49.971Z,247.50
2019-05-21T08:23:49.986Z,247.50
2019-05-21T08:24:49.992Z,247.50
2019-05-21T08:25:50.023Z,253.13
2019-05-21T08:26:50.039Z,253.13
2019-05-21T08:27:50.053Z,253.13
2019-05-21T08:28:50.033Z,253.13
2019-05-21T08:29:50.046Z,253.13
2019-05-21T08:30:50.083Z,253.13
2019-05-21T08:31:50.086Z,253.13
2019-05-21T08:32:50.099Z,253.13
2019-05-21T08:33:50.093Z,258.75
2019-05-21T08:34:50.157Z,258.75
2019-05-21T08:35:50.130Z,253.13
2019-05-21T08:36:50.216Z,253.13
2019-05-21T08:37:50.189Z,253.13
2019-05-21T08:38:50.217Z,258.75
2019-05-21T08:39:50.187Z,258.75
2019-05-21T08:40:50.202Z,264.38
2019-05-21T08:41:50.198Z,270.00
2019-05-21T08:42:50.219Z,270.00
2019-05-21T08:43:50.216Z,264.38
2019-05-21T08:44:50.225Z,258.75
2019-05-21T08:45:50.289Z,264.38
2019-05-21T08:46:50.261Z,264.38
2019-05-21T08:47:50.268Z,264.38
2019-05-21T08:48:50.269Z,264.38
2019-05-21T08:49:50.319Z,264.38
2019-05-21T08:50:50.322Z,258.75
2019-05-21T08:51:50.316Z,270.00
2019-05-21T08:52:50.342Z,275.63
2019-05-21T08:53:50.352Z,281.25
2019-05-21T08:54:50.377Z,286.88
2019-05-21T08:55:50.352Z,281.25
2019-05-21T08:56:50.380Z,286.88
2019-05-21T08:58:05.501Z,281.25
2019-05-21T08:58:50.525Z,275.63
2019-05-21T08:59:50.406Z,270.00
2019-05-21T09:00:50.462Z,270.00
2019-05-21T09:01:50.422Z,270.00
2019-05-21T09:02:50.446Z,281.25
2019-05-21T09:03:50.464Z,286.88
2019-05-21T09:04:50.482Z,292.50
2019-05-21T09:05:50.498Z,303.75
2019-05-21T09:06:50.491Z,309.38
2019-05-21T09:07:53.625Z,320.63
2019-05-21T09:08:50.525Z,348.75
2019-05-21T09:09:52.062Z,365.63
2019-05-21T09:10:50.535Z,388.13
2019-05-21T09:11:50.574Z,410.63
2019-05-21T09:12:50.568Z,410.63
2019-05-21T09:13:50.570Z,410.63
2019-05-21T09:14:50.610Z,399.38
2019-05-21T09:15:50.635Z,399.38
2019-05-21T09:16:50.605Z,399.38
2019-05-21T09:17:50.636Z,399.38
2019-05-21T09:18:50.630Z,393.75
2019-05-21T09:19:50.670Z,399.38
2019-05-21T09:20:50.687Z,393.75
2019-05-21T09:21:50.720Z,393.75
2019-05-21T09:22:50.706Z,399.38
2019-05-21T09:23:50.694Z,416.25
2019-05-21T09:24:50.733Z,438.75
2019-05-21T09:25:50.744Z,466.88
2019-05-21T09:26:50.791Z,523.13
2019-05-21T09:27:50.850Z,562.50
2019-05-21T09:28:50.755Z,601.88
2019-05-21T09:29:50.795Z,635.63
2019-05-21T09:30:50.847Z,686.25
2019-05-21T09:31:50.806Z,725.63
2019-05-21T09:32:50.829Z,725.63
2019-05-21T09:33:50.884Z,720.00
2019-05-21T09:34:50.833Z,708.75
2019-05-21T09:35:50.854Z,691.88
2019-05-21T09:36:50.877Z,669.38
2019-05-21T09:37:50.891Z,630.00
2019-05-21T09:38:50.913Z,630.00
2019-05-21T09:39:50.899Z,686.25
2019-05-21T09:40:50.912Z,742.50
2019-05-21T09:41:50.947Z,748.13
2019-05-21T09:42:50.957Z,753.75
2019-05-21T09:43:50.950Z,748.13
2019-05-21T09:44:50.987Z,759.38
2019-05-21T09:45:50.986Z,731.25
2019-05-21T09:46:50.979Z,703.13
2019-05-21T09:47:51.120Z,663.75
2019-05-21T09:48:51.020Z,607.50
2019-05-21T09:49:51.037Z,573.75
2019-05-21T09:50:51.079Z,545.63
2019-05-21T09:51:51.050Z,528.75
2019-05-21T09:52:51.270Z,500.63
2019-05-21T09:53:51.102Z,489.38
2019-05-21T09:54:51.108Z,495.00
2019-05-21T09:55:51.126Z,489.38
2019-05-21T09:56:51.163Z,489.38
2019-05-21T09:57:51.171Z,495.00
2019-05-21T09:58:51.182Z,495.00
2019-05-21T09:59:51.196Z,500.63
2019-05-21T10:00:51.203Z,500.63
2019-05-21T10:01:51.183Z,500.63
2019-05-21T10:02:51.225Z,489.38
2019-05-21T10:03:51.242Z,495.00
2019-05-21T10:04:51.350Z,506.25
2019-05-21T10:05:51.255Z,517.50
2019-05-21T10:06:51.266Z,523.13
2019-05-21T10:07:51.304Z,540.00
2019-05-21T10:08:51.338Z,540.00
2019-05-21T10:09:51.308Z,556.88
2019-05-21T10:10:51.376Z,568.13
2019-05-21T10:11:51.349Z,562.50
2019-05-21T10:12:51.372Z,540.00
2019-05-21T10:13:51.344Z,534.38
2019-05-21T10:14:51.422Z,540.00
2019-05-21T10:15:51.380Z,545.63
2019-05-21T10:16:51.410Z,573.75
2019-05-21T10:17:51.456Z,601.88
2019-05-21T10:18:51.432Z,624.38
2019-05-21T10:19:51.449Z,596.25
2019-05-21T10:20:51.474Z,545.63
2019-05-21T10:21:51.483Z,545.63
2019-05-21T10:22:51.488Z,556.88
2019-05-21T10:23:51.529Z,573.75
2019-05-21T10:24:51.496Z,579.38
2019-05-21T10:25:51.558Z,545.63
2019-05-21T10:26:51.529Z,545.63
2019-05-21T10:27:51.545Z,568.13
2019-05-21T10:28:51.579Z,585.00
2019-05-21T10:29:51.575Z,613.13
2019-05-21T10:30:51.612Z,613.13
2019-05-21T10:31:51.595Z,585.00
2019-05-21T10:32:51.622Z,562.50
2019-05-21T10:33:51.624Z,528.75
2019-05-21T10:34:51.711Z,528.75
2019-05-21T10:35:51.698Z,528.75
2019-05-21T10:36:51.721Z,545.63
2019-05-21T10:37:54.847Z,551.25
2019-05-21T10:38:51.709Z,545.63
2019-05-21T10:39:51.716Z,551.25
2019-05-21T10:40:51.758Z,551.25
2019-05-21T10:41:51.748Z,540.00
2019-05-21T10:42:51.755Z,545.63
2019-05-21T10:43:51.823Z,545.63
2019-05-21T10:44:51.784Z,551.25
2019-05-21T10:45:51.843Z,556.88
2019-05-21T10:46:51.831Z,579.38
2019-05-21T10:47:51.832Z,624.38
2019-05-21T10:48:51.841Z,663.75
2019-05-21T10:49:51.847Z,708.75
2019-05-21T10:50:51.872Z,787.50
2019-05-21T10:51:51.906Z,871.88
2019-05-21T10:52:51.888Z,933.75
2019-05-21T10:53:51.904Z,978.75
2019-05-21T10:54:51.916Z,1006.88
2019-05-21T10:55:51.982Z,990.00
2019-05-21T10:56:51.977Z,961.88
2019-05-21T10:57:51.956Z,922.50
2019-05-21T10:58:51.991Z,922.50
2019-05-21T10:59:52.023Z,911.25
2019-05-21T11:00:52.026Z,911.25
2019-05-21T11:01:52.071Z,911.25
2019-05-21T11:02:52.065Z,911.25
2019-05-21T11:03:52.047Z,916.88
2019-05-21T11:04:52.074Z,916.88
2019-05-21T11:06:07.400Z,883.13
2019-05-21T11:06:52.116Z,826.88
2019-05-21T11:07:52.119Z,787.50
2019-05-21T11:08:52.140Z,736.88
2019-05-21T11:09:52.159Z,686.25
2019-05-21T11:10:52.159Z,635.63
2019-05-21T11:11:52.173Z,590.63
2019-05-21T11:12:52.176Z,573.75
2019-05-21T11:13:52.232Z,573.75
2019-05-21T11:14:52.206Z,613.13
2019-05-21T11:15:52.256Z,708.75
2019-05-21T11:16:52.253Z,815.63
2019-05-21T11:18:09.081Z,877.50
2019-05-21T11:18:52.313Z,877.50
2019-05-21T11:19:52.294Z,855.00
2019-05-21T11:20:52.368Z,860.63
2019-05-21T11:21:52.345Z,838.13
2019-05-21T11:22:52.340Z,798.75
2019-05-21T11:23:52.393Z,731.25
2019-05-21T11:24:52.387Z,663.75
2019-05-21T11:25:52.386Z,630.00
2019-05-21T11:26:52.392Z,607.50
2019-05-21T11:27:52.423Z,573.75
2019-05-21T11:28:52.484Z,528.75
2019-05-21T11:29:52.441Z,489.38
2019-05-21T11:30:52.534Z,472.50
2019-05-21T11:31:57.280Z,472.50
2019-05-21T11:32:52.508Z,478.13
2019-05-21T11:33:52.534Z,500.63
2019-05-21T11:34:52.524Z,528.75
2019-05-21T11:35:52.594Z,585.00
2019-05-21T11:36:52.559Z,613.13
2019-05-21T11:37:52.569Z,601.88
2019-05-21T11:38:52.574Z,613.13
2019-05-21T11:39:52.631Z,630.00
2019-05-21T11:40:52.628Z,624.38
2019-05-21T11:41:52.629Z,607.50
2019-05-21T11:42:53.269Z,601.88
2019-05-21T11:43:52.671Z,613.13
2019-05-21T11:44:52.710Z,618.75
2019-05-21T11:45:52.696Z,590.63
2019-05-21T11:46:52.734Z,568.13
2019-05-21T11:47:54.661Z,573.75
2019-05-21T11:48:52.736Z,585.00
2019-05-21T11:49:52.737Z,596.25
2019-05-21T11:50:52.813Z,607.50
2019-05-21T11:51:52.841Z,596.25
2019-05-21T11:52:52.801Z,579.38
2019-05-21T11:53:52.815Z,573.75
2019-05-21T11:54:55.777Z,585.00
2019-05-21T11:55:52.873Z,585.00
2019-05-21T11:56:52.856Z,573.75
2019-05-21T11:57:52.940Z,551.25
2019-05-21T11:58:52.874Z,523.13
2019-05-21T11:59:52.930Z,495.00
2019-05-21T12:00:52.910Z,472.50
2019-05-21T12:01:52.958Z,455.63
2019-05-21T12:02:53.032Z,450.00
2019-05-21T12:03:52.951Z,444.38
2019-05-21T12:04:53.027Z,444.38
2019-05-21T12:05:52.998Z,455.63
2019-05-21T12:06:53.035Z,466.88
2019-05-21T12:07:53.015Z,478.13
2019-05-21T12:08:56.618Z,495.00
2019-05-21T12:09:53.165Z,506.25
2019-05-21T12:10:53.107Z,489.38
2019-05-21T12:11:53.080Z,472.50
2019-05-21T12:12:53.142Z,483.75
2019-05-21T12:13:53.108Z,528.75
2019-05-21T12:14:53.125Z,579.38
2019-05-21T12:15:53.168Z,618.75
2019-05-21T12:16:53.162Z,635.63
2019-05-21T12:17:53.200Z,635.63
2019-05-21T12:18:53.178Z,635.63
2019-05-21T12:19:53.182Z,618.75
2019-05-21T12:20:53.232Z,613.13
2019-05-21T12:21:53.335Z,618.75
2019-05-21T12:22:53.231Z,601.88
2019-05-21T12:23:53.309Z,596.25
2019-05-21T12:24:53.286Z,601.88
2019-05-21T12:25:53.279Z,624.38
2019-05-21T12:26:53.297Z,663.75
2019-05-21T12:27:53.308Z,663.75
2019-05-21T12:28:53.340Z,630.00
2019-05-21T12:29:53.377Z,579.38
2019-05-21T12:30:53.360Z,545.63
2019-05-21T12:31:53.378Z,523.13
2019-05-21T12:32:53.408Z,478.13
2019-05-21T12:33:53.430Z,444.38
2019-05-21T12:34:53.414Z,450.00
2019-05-21T12:35:53.435Z,466.88
2019-05-21T12:36:53.439Z,472.50
2019-05-21T12:37:53.447Z,472.50
2019-05-21T12:38:53.495Z,489.38
2019-05-21T12:39:53.533Z,506.25
2019-05-21T12:40:53.504Z,517.50
2019-05-21T12:41:53.523Z,511.88
2019-05-21T12:42:53.536Z,495.00
2019-05-21T12:43:53.562Z,483.75
2019-05-21T12:44:53.555Z,461.25
2019-05-21T12:45:53.575Z,461.25
2019-05-21T12:46:53.589Z,461.25
2019-05-21T12:47:54.170Z,478.13
2019-05-21T12:48:53.637Z,506.25
2019-05-21T12:49:53.633Z,495.00
2019-05-21T12:50:53.667Z,495.00
2019-05-21T12:51:53.699Z,500.63
2019-05-21T12:52:53.678Z,506.25
2019-05-21T12:53:53.689Z,506.25
2019-05-21T12:54:53.702Z,500.63
2019-05-21T12:55:53.707Z,489.38
2019-05-21T12:56:53.739Z,466.88
2019-05-21T12:57:53.763Z,450.00
2019-05-21T12:58:53.766Z,444.38
2019-05-21T12:59:53.787Z,444.38
2019-05-21T13:00:53.779Z,450.00
2019-05-21T13:01:53.856Z,466.88
2019-05-21T13:02:53.816Z,483.75